sensor_id;sensor_type;location;lat;lon;timestamp;P1;durP1;ratioP1;P2;durP2;ratioP2
15295;SDS011;7749;49.964;7.890;2023-09-19T00:00:47;3.50;;;2.10;;
15295;SDS011;7749;49.964;7.890;2023-09-19T00:03:16;4.13;;;2.50;;
15295;SDS011;7749;49.964;7.890;2023-09-19T00:05:44;3.72;;;2.17;;
15295;SDS011;7749;49.964;7.890;2023-09-19T00:08:12;2.43;;;1.80;;
15295;SDS011;7749;49.964;7.890;2023-09-19T00:10:43;2.67;;;2.03;;
15295;SDS011;7749;49.964;7.890;2023-09-19T00:13:11;2.88;;;2.00;;
15295;SDS011;7749;49.964;7.890;2023-09-19T00:15:42;2.83;;;1.98;;
15295;SDS011;7749;49.964;7.890;2023-09-19T00:18:18;4.15;;;2.17;;
15295;SDS011;7749;49.964;7.890;2023-09-19T00:20:51;3.80;;;2.10;;
15295;SDS011;7749;49.964;7.890;2023-09-19T00:23:19;5.07;;;2.50;;
15295;SDS011;7749;49.964;7.890;2023-09-19T00:25:48;3.47;;;2.00;;
15295;SDS011;7749;49.964;7.890;2023-09-19T00:28:15;3.78;;;2.00;;
15295;SDS011;7749;49.964;7.890;2023-09-19T00:30:44;3.47;;;2.10;;
15295;SDS011;7749;49.964;7.890;2023-09-19T00:33:20;2.90;;;1.80;;
15295;SDS011;7749;49.964;7.890;2023-09-19T00:35:48;3.28;;;2.00;;
15295;SDS011;7749;49.964;7.890;2023-09-19T00:38:20;5.00;;;2.50;;
15295;SDS011;7749;49.964;7.890;2023-09-19T00:40:50;4.15;;;2.00;;
15295;SDS011;7749;49.964;7.890;2023-09-19T00:43:20;3.60;;;2.00;;
15295;SDS011;7749;49.964;7.890;2023-09-19T00:45:51;2.53;;;1.53;;
15295;SDS011;7749;49.964;7.890;2023-09-19T00:48:21;2.67;;;1.90;;
15295;SDS011;7749;49.964;7.890;2023-09-19T00:50:50;3.47;;;1.53;;
15295;SDS011;7749;49.964;7.890;2023-09-19T00:53:19;3.03;;;2.10;;
15295;SDS011;7749;49.964;7.890;2023-09-19T00:55:50;2.30;;;1.73;;
15295;SDS011;7749;49.964;7.890;2023-09-19T00:58:18;2.70;;;1.90;;
15295;SDS011;7749;49.964;7.890;2023-09-19T01:00:49;3.17;;;1.97;;
15295;SDS011;7749;49.964;7.890;2023-09-19T01:03:20;3.03;;;1.80;;
15295;SDS011;7749;49.964;7.890;2023-09-19T01:05:48;2.97;;;1.80;;
15295;SDS011;7749;49.964;7.890;2023-09-19T01:08:16;2.90;;;1.80;;
15295;SDS011;7749;49.964;7.890;2023-09-19T01:10:50;3.73;;;2.17;;
15295;SDS011;7749;49.964;7.890;2023-09-19T01:16:30;3.03;;;1.80;;
15295;SDS011;7749;49.964;7.890;2023-09-19T01:22:19;3.77;;;1.80;;
15295;SDS011;7749;49.964;7.890;2023-09-19T01:30:24;4.10;;;2.10;;
15295;SDS011;7749;49.964;7.890;2023-09-19T01:32:58;3.30;;;2.00;;
15295;SDS011;7749;49.964;7.890;2023-09-19T01:35:26;3.27;;;1.90;;
15295;SDS011;7749;49.964;7.890;2023-09-19T01:37:54;2.63;;;2.07;;
15295;SDS011;7749;49.964;7.890;2023-09-19T01:40:21;2.30;;;1.97;;
15295;SDS011;7749;49.964;7.890;2023-09-19T01:42:55;3.00;;;2.20;;
15295;SDS011;7749;49.964;7.890;2023-09-19T01:46:08;3.20;;;1.80;;
15295;SDS011;7749;49.964;7.890;2023-09-19T01:48:43;3.10;;;1.90;;
15295;SDS011;7749;49.964;7.890;2023-09-19T01:51:33;3.17;;;2.00;;
15295;SDS011;7749;49.964;7.890;2023-09-19T01:54:26;2.97;;;2.07;;
15295;SDS011;7749;49.964;7.890;2023-09-19T01:57:03;2.53;;;1.90;;
15295;SDS011;7749;49.964;7.890;2023-09-19T01:59:38;2.17;;;1.80;;
15295;SDS011;7749;49.964;7.890;2023-09-19T02:02:11;4.67;;;1.87;;
15295;SDS011;7749;49.964;7.890;2023-09-19T02:04:41;2.47;;;1.93;;
15295;SDS011;7749;49.964;7.890;2023-09-19T02:07:08;2.30;;;1.90;;
15295;SDS011;7749;49.964;7.890;2023-09-19T02:09:36;3.40;;;1.90;;
15295;SDS011;7749;49.964;7.890;2023-09-19T02:12:05;4.87;;;2.13;;
15295;SDS011;7749;49.964;7.890;2023-09-19T02:14:34;3.03;;;1.90;;
15295;SDS011;7749;49.964;7.890;2023-09-19T02:17:03;2.67;;;1.70;;
15295;SDS011;7749;49.964;7.890;2023-09-19T02:19:33;3.90;;;1.90;;
15295;SDS011;7749;49.964;7.890;2023-09-19T02:22:01;2.50;;;1.77;;
15295;SDS011;7749;49.964;7.890;2023-09-19T02:24:34;2.70;;;2.00;;
15295;SDS011;7749;49.964;7.890;2023-09-19T02:27:02;4.07;;;1.90;;
15295;SDS011;7749;49.964;7.890;2023-09-19T02:29:31;3.13;;;1.80;;
15295;SDS011;7749;49.964;7.890;2023-09-19T02:32:01;1.80;;;1.70;;
15295;SDS011;7749;49.964;7.890;2023-09-19T02:34:29;3.57;;;2.10;;
15295;SDS011;7749;49.964;7.890;2023-09-19T02:36:57;4.00;;;1.90;;
15295;SDS011;7749;49.964;7.890;2023-09-19T02:39:24;3.77;;;1.93;;
15295;SDS011;7749;49.964;7.890;2023-09-19T02:41:52;2.30;;;1.70;;
15295;SDS011;7749;49.964;7.890;2023-09-19T02:44:19;3.80;;;1.97;;
15295;SDS011;7749;49.964;7.890;2023-09-19T02:46:47;4.47;;;1.97;;
15295;SDS011;7749;49.964;7.890;2023-09-19T02:49:14;2.00;;;1.80;;
15295;SDS011;7749;49.964;7.890;2023-09-19T02:51:42;6.20;;;2.10;;
15295;SDS011;7749;49.964;7.890;2023-09-19T02:54:10;3.13;;;1.90;;
15295;SDS011;7749;49.964;7.890;2023-09-19T02:56:38;2.63;;;1.80;;
15295;SDS011;7749;49.964;7.890;2023-09-19T02:59:06;3.03;;;1.93;;
15295;SDS011;7749;49.964;7.890;2023-09-19T03:01:34;4.70;;;1.93;;
15295;SDS011;7749;49.964;7.890;2023-09-19T03:04:02;2.90;;;1.93;;
15295;SDS011;7749;49.964;7.890;2023-09-19T03:06:29;1.70;;;1.50;;
15295;SDS011;7749;49.964;7.890;2023-09-19T03:08:58;3.30;;;1.90;;
15295;SDS011;7749;49.964;7.890;2023-09-19T03:11:26;4.53;;;2.00;;
15295;SDS011;7749;49.964;7.890;2023-09-19T03:13:55;5.03;;;2.00;;
15295;SDS011;7749;49.964;7.890;2023-09-19T03:16:22;4.63;;;2.10;;
15295;SDS011;7749;49.964;7.890;2023-09-19T03:18:50;3.83;;;1.70;;
15295;SDS011;7749;49.964;7.890;2023-09-19T03:21:18;4.83;;;1.97;;
15295;SDS011;7749;49.964;7.890;2023-09-19T03:23:46;3.07;;;1.90;;
15295;SDS011;7749;49.964;7.890;2023-09-19T03:26:13;5.17;;;2.07;;
15295;SDS011;7749;49.964;7.890;2023-09-19T03:28:43;3.50;;;1.80;;
15295;SDS011;7749;49.964;7.890;2023-09-19T03:31:10;2.73;;;1.87;;
15295;SDS011;7749;49.964;7.890;2023-09-19T03:33:38;7.37;;;2.37;;
15295;SDS011;7749;49.964;7.890;2023-09-19T03:36:06;4.47;;;2.00;;
15295;SDS011;7749;49.964;7.890;2023-09-19T03:38:34;4.20;;;1.90;;
15295;SDS011;7749;49.964;7.890;2023-09-19T03:41:02;4.73;;;1.80;;
15295;SDS011;7749;49.964;7.890;2023-09-19T03:43:31;3.80;;;1.90;;
15295;SDS011;7749;49.964;7.890;2023-09-19T03:46:02;3.50;;;2.20;;
15295;SDS011;7749;49.964;7.890;2023-09-19T03:48:34;4.07;;;1.90;;
15295;SDS011;7749;49.964;7.890;2023-09-19T03:51:02;4.37;;;2.00;;
15295;SDS011;7749;49.964;7.890;2023-09-19T03:53:29;5.70;;;1.90;;
15295;SDS011;7749;49.964;7.890;2023-09-19T03:55:57;3.73;;;1.60;;
15295;SDS011;7749;49.964;7.890;2023-09-19T03:58:27;5.50;;;1.70;;
15295;SDS011;7749;49.964;7.890;2023-09-19T04:00:55;2.67;;;1.80;;
15295;SDS011;7749;49.964;7.890;2023-09-19T04:03:23;3.43;;;2.30;;
15295;SDS011;7749;49.964;7.890;2023-09-19T04:05:55;3.87;;;1.80;;
15295;SDS011;7749;49.964;7.890;2023-09-19T04:08:23;3.00;;;1.83;;
15295;SDS011;7749;49.964;7.890;2023-09-19T04:10:51;5.73;;;2.00;;
15295;SDS011;7749;49.964;7.890;2023-09-19T04:13:20;2.83;;;1.83;;
15295;SDS011;7749;49.964;7.890;2023-09-19T04:15:49;8.87;;;2.00;;
15295;SDS011;7749;49.964;7.890;2023-09-19T04:18:17;4.13;;;1.87;;
15295;SDS011;7749;49.964;7.890;2023-09-19T04:20:50;1.77;;;1.57;;
15295;SDS011;7749;49.964;7.890;2023-09-19T04:23:18;7.67;;;2.63;;
15295;SDS011;7749;49.964;7.890;2023-09-19T04:25:47;4.57;;;2.30;;
15295;SDS011;7749;49.964;7.890;2023-09-19T04:28:15;4.23;;;2.00;;
15295;SDS011;7749;49.964;7.890;2023-09-19T04:30:43;4.13;;;1.77;;
15295;SDS011;7749;49.964;7.890;2023-09-19T04:33:11;3.47;;;1.97;;
15295;SDS011;7749;49.964;7.890;2023-09-19T04:35:41;4.27;;;2.10;;
15295;SDS011;7749;49.964;7.890;2023-09-19T04:38:11;4.23;;;2.07;;
15295;SDS011;7749;49.964;7.890;2023-09-19T04:40:39;3.77;;;2.07;;
15295;SDS011;7749;49.964;7.890;2023-09-19T04:43:07;3.17;;;1.80;;
15295;SDS011;7749;49.964;7.890;2023-09-19T04:45:36;4.57;;;2.37;;
15295;SDS011;7749;49.964;7.890;2023-09-19T04:48:06;5.33;;;2.00;;
15295;SDS011;7749;49.964;7.890;2023-09-19T04:50:35;4.40;;;2.00;;
15295;SDS011;7749;49.964;7.890;2023-09-19T04:53:04;6.77;;;2.50;;
15295;SDS011;7749;49.964;7.890;2023-09-19T04:55:31;4.10;;;2.10;;
15295;SDS011;7749;49.964;7.890;2023-09-19T04:58:00;3.80;;;2.27;;
15295;SDS011;7749;49.964;7.890;2023-09-19T05:00:27;3.60;;;2.40;;
15295;SDS011;7749;49.964;7.890;2023-09-19T05:02:57;3.93;;;2.50;;
15295;SDS011;7749;49.964;7.890;2023-09-19T05:05:26;5.03;;;2.93;;
15295;SDS011;7749;49.964;7.890;2023-09-19T05:07:54;4.13;;;2.50;;
15295;SDS011;7749;49.964;7.890;2023-09-19T05:10:23;5.37;;;3.27;;
15295;SDS011;7749;49.964;7.890;2023-09-19T05:12:54;3.40;;;2.20;;
15295;SDS011;7749;49.964;7.890;2023-09-19T05:15:22;5.50;;;3.20;;
15295;SDS011;7749;49.964;7.890;2023-09-19T05:17:50;6.67;;;3.00;;
15295;SDS011;7749;49.964;7.890;2023-09-19T05:20:23;3.73;;;2.50;;
15295;SDS011;7749;49.964;7.890;2023-09-19T05:22:57;4.77;;;2.73;;
15295;SDS011;7749;49.964;7.890;2023-09-19T05:25:31;4.43;;;2.80;;
15295;SDS011;7749;49.964;7.890;2023-09-19T05:28:00;4.70;;;2.80;;
15295;SDS011;7749;49.964;7.890;2023-09-19T05:30:31;5.50;;;2.87;;
15295;SDS011;7749;49.964;7.890;2023-09-19T05:32:59;4.43;;;2.60;;
15295;SDS011;7749;49.964;7.890;2023-09-19T05:35:27;6.70;;;2.60;;
15295;SDS011;7749;49.964;7.890;2023-09-19T05:37:54;2.87;;;2.23;;
15295;SDS011;7749;49.964;7.890;2023-09-19T05:40:23;4.07;;;2.67;;
15295;SDS011;7749;49.964;7.890;2023-09-19T05:42:51;4.63;;;2.37;;
15295;SDS011;7749;49.964;7.890;2023-09-19T05:45:19;5.53;;;2.50;;
15295;SDS011;7749;49.964;7.890;2023-09-19T05:47:49;3.60;;;2.30;;
15295;SDS011;7749;49.964;7.890;2023-09-19T05:50:18;4.13;;;2.07;;
15295;SDS011;7749;49.964;7.890;2023-09-19T05:52:53;3.20;;;2.30;;
15295;SDS011;7749;49.964;7.890;2023-09-19T05:55:23;6.63;;;2.53;;
15295;SDS011;7749;49.964;7.890;2023-09-19T05:57:53;4.40;;;2.33;;
15295;SDS011;7749;49.964;7.890;2023-09-19T06:00:21;4.43;;;2.57;;
15295;SDS011;7749;49.964;7.890;2023-09-19T06:02:54;5.30;;;2.40;;
15295;SDS011;7749;49.964;7.890;2023-09-19T06:05:24;4.70;;;2.40;;
15295;SDS011;7749;49.964;7.890;2023-09-19T06:07:59;3.80;;;2.53;;
15295;SDS011;7749;49.964;7.890;2023-09-19T06:10:28;5.50;;;2.47;;
15295;SDS011;7749;49.964;7.890;2023-09-19T06:12:56;6.10;;;2.97;;
15295;SDS011;7749;49.964;7.890;2023-09-19T06:15:25;4.80;;;2.20;;
15295;SDS011;7749;49.964;7.890;2023-09-19T06:17:54;6.10;;;2.27;;
15295;SDS011;7749;49.964;7.890;2023-09-19T06:20:23;5.23;;;2.27;;
15295;SDS011;7749;49.964;7.890;2023-09-19T06:22:52;7.37;;;2.20;;
15295;SDS011;7749;49.964;7.890;2023-09-19T06:25:21;3.83;;;2.00;;
15295;SDS011;7749;49.964;7.890;2023-09-19T06:27:51;4.40;;;2.63;;
15295;SDS011;7749;49.964;7.890;2023-09-19T06:30:21;3.47;;;2.27;;
15295;SDS011;7749;49.964;7.890;2023-09-19T06:32:56;3.43;;;1.90;;
15295;SDS011;7749;49.964;7.890;2023-09-19T06:38:33;5.83;;;1.90;;
15295;SDS011;7749;49.964;7.890;2023-09-19T06:41:03;5.57;;;1.70;;
15295;SDS011;7749;49.964;7.890;2023-09-19T06:43:35;4.00;;;2.43;;
15295;SDS011;7749;49.964;7.890;2023-09-19T06:46:03;5.80;;;2.33;;
15295;SDS011;7749;49.964;7.890;2023-09-19T06:48:31;6.53;;;1.90;;
15295;SDS011;7749;49.964;7.890;2023-09-19T06:51:00;5.10;;;1.77;;
15295;SDS011;7749;49.964;7.890;2023-09-19T06:53:32;5.70;;;1.83;;
15295;SDS011;7749;49.964;7.890;2023-09-19T06:56:02;4.70;;;1.80;;
15295;SDS011;7749;49.964;7.890;2023-09-19T06:58:30;2.97;;;1.97;;
15295;SDS011;7749;49.964;7.890;2023-09-19T07:00:58;3.33;;;1.80;;
15295;SDS011;7749;49.964;7.890;2023-09-19T07:03:26;3.83;;;1.70;;
15295;SDS011;7749;49.964;7.890;2023-09-19T07:05:56;4.53;;;1.63;;
15295;SDS011;7749;49.964;7.890;2023-09-19T07:08:25;4.18;;;1.70;;
15295;SDS011;7749;49.964;7.890;2023-09-19T07:10:53;3.45;;;2.00;;
15295;SDS011;7749;49.964;7.890;2023-09-19T07:13:23;4.40;;;1.70;;
15295;SDS011;7749;49.964;7.890;2023-09-19T07:15:52;4.07;;;2.10;;
15295;SDS011;7749;49.964;7.890;2023-09-19T07:18:20;5.90;;;2.20;;
15295;SDS011;7749;49.964;7.890;2023-09-19T07:20:47;5.85;;;2.25;;
15295;SDS011;7749;49.964;7.890;2023-09-19T07:23:18;4.05;;;1.65;;
15295;SDS011;7749;49.964;7.890;2023-09-19T07:25:48;2.15;;;1.60;;
15295;SDS011;7749;49.964;7.890;2023-09-19T07:28:17;6.68;;;1.95;;
15295;SDS011;7749;49.964;7.890;2023-09-19T07:30:44;3.40;;;1.75;;
15295;SDS011;7749;49.964;7.890;2023-09-19T07:33:12;4.28;;;1.77;;
15295;SDS011;7749;49.964;7.890;2023-09-19T07:35:40;5.43;;;1.73;;
15295;SDS011;7749;49.964;7.890;2023-09-19T07:38:08;4.85;;;1.92;;
15295;SDS011;7749;49.964;7.890;2023-09-19T07:40:37;6.68;;;2.13;;
15295;SDS011;7749;49.964;7.890;2023-09-19T07:43:04;5.38;;;1.73;;
15295;SDS011;7749;49.964;7.890;2023-09-19T07:45:33;7.57;;;2.05;;
15295;SDS011;7749;49.964;7.890;2023-09-19T07:48:03;3.15;;;1.65;;
15295;SDS011;7749;49.964;7.890;2023-09-19T07:50:33;3.80;;;2.08;;
15295;SDS011;7749;49.964;7.890;2023-09-19T07:53:04;3.40;;;1.75;;
15295;SDS011;7749;49.964;7.890;2023-09-19T07:55:32;6.32;;;1.95;;
15295;SDS011;7749;49.964;7.890;2023-09-19T07:58:01;4.20;;;1.70;;
15295;SDS011;7749;49.964;7.890;2023-09-19T08:00:31;5.72;;;1.73;;
15295;SDS011;7749;49.964;7.890;2023-09-19T08:03:01;3.63;;;2.08;;
15295;SDS011;7749;49.964;7.890;2023-09-19T08:05:42;5.05;;;2.22;;
15295;SDS011;7749;49.964;7.890;2023-09-19T08:08:12;5.75;;;1.75;;
15295;SDS011;7749;49.964;7.890;2023-09-19T08:10:42;5.97;;;1.85;;
15295;SDS011;7749;49.964;7.890;2023-09-19T08:13:13;5.85;;;2.15;;
15295;SDS011;7749;49.964;7.890;2023-09-19T08:15:45;3.72;;;1.83;;
15295;SDS011;7749;49.964;7.890;2023-09-19T08:18:13;6.38;;;2.15;;
15295;SDS011;7749;49.964;7.890;2023-09-19T08:20:43;5.43;;;2.00;;
15295;SDS011;7749;49.964;7.890;2023-09-19T08:23:16;7.07;;;2.47;;
15295;SDS011;7749;49.964;7.890;2023-09-19T08:25:47;7.60;;;2.05;;
15295;SDS011;7749;49.964;7.890;2023-09-19T08:28:15;8.87;;;2.20;;
15295;SDS011;7749;49.964;7.890;2023-09-19T08:30:46;6.17;;;2.10;;
15295;SDS011;7749;49.964;7.890;2023-09-19T08:33:13;7.73;;;2.37;;
15295;SDS011;7749;49.964;7.890;2023-09-19T08:35:42;5.57;;;2.10;;
15295;SDS011;7749;49.964;7.890;2023-09-19T08:38:10;5.13;;;2.25;;
15295;SDS011;7749;49.964;7.890;2023-09-19T08:40:38;6.43;;;2.30;;
15295;SDS011;7749;49.964;7.890;2023-09-19T08:43:11;5.72;;;1.85;;
15295;SDS011;7749;49.964;7.890;2023-09-19T08:45:39;6.43;;;2.03;;
15295;SDS011;7749;49.964;7.890;2023-09-19T08:48:17;6.67;;;2.33;;
15295;SDS011;7749;49.964;7.890;2023-09-19T08:51:07;5.82;;;2.22;;
15295;SDS011;7749;49.964;7.890;2023-09-19T08:53:43;7.23;;;2.13;;
15295;SDS011;7749;49.964;7.890;2023-09-19T08:56:19;5.67;;;1.90;;
15295;SDS011;7749;49.964;7.890;2023-09-19T08:58:57;10.37;;;2.37;;
15295;SDS011;7749;49.964;7.890;2023-09-19T09:01:27;10.67;;;2.10;;
15295;SDS011;7749;49.964;7.890;2023-09-19T09:03:56;8.60;;;2.30;;
15295;SDS011;7749;49.964;7.890;2023-09-19T09:06:25;8.73;;;2.22;;
15295;SDS011;7749;49.964;7.890;2023-09-19T09:08:55;6.88;;;2.63;;
15295;SDS011;7749;49.964;7.890;2023-09-19T09:11:23;6.90;;;2.20;;
15295;SDS011;7749;49.964;7.890;2023-09-19T09:13:52;6.60;;;2.58;;
15295;SDS011;7749;49.964;7.890;2023-09-19T09:16:19;7.18;;;2.60;;
15295;SDS011;7749;49.964;7.890;2023-09-19T09:18:47;6.00;;;2.20;;
15295;SDS011;7749;49.964;7.890;2023-09-19T09:21:21;10.65;;;2.95;;
15295;SDS011;7749;49.964;7.890;2023-09-19T09:23:49;8.65;;;2.40;;
15295;SDS011;7749;49.964;7.890;2023-09-19T09:26:40;7.78;;;2.20;;
15295;SDS011;7749;49.964;7.890;2023-09-19T09:29:10;9.40;;;1.98;;
15295;SDS011;7749;49.964;7.890;2023-09-19T09:31:37;7.45;;;2.63;;
15295;SDS011;7749;49.964;7.890;2023-09-19T09:34:06;6.10;;;1.70;;
15295;SDS011;7749;49.964;7.890;2023-09-19T09:36:34;7.55;;;2.03;;
15295;SDS011;7749;49.964;7.890;2023-09-19T09:39:07;6.88;;;2.05;;
15295;SDS011;7749;49.964;7.890;2023-09-19T09:41:52;7.18;;;2.95;;
15295;SDS011;7749;49.964;7.890;2023-09-19T09:44:20;4.78;;;1.80;;
15295;SDS011;7749;49.964;7.890;2023-09-19T09:46:48;7.45;;;2.20;;
15295;SDS011;7749;49.964;7.890;2023-09-19T09:49:22;5.70;;;2.30;;
15295;SDS011;7749;49.964;7.890;2023-09-19T09:52:02;5.63;;;2.00;;
15295;SDS011;7749;49.964;7.890;2023-09-19T09:54:38;9.48;;;2.40;;
15295;SDS011;7749;49.964;7.890;2023-09-19T09:57:24;5.65;;;2.08;;
15295;SDS011;7749;49.964;7.890;2023-09-19T09:59:53;5.63;;;2.05;;
15295;SDS011;7749;49.964;7.890;2023-09-19T10:02:42;8.02;;;2.38;;
15295;SDS011;7749;49.964;7.890;2023-09-19T10:05:14;4.03;;;1.77;;
15295;SDS011;7749;49.964;7.890;2023-09-19T10:08:10;6.15;;;1.90;;
15295;SDS011;7749;49.964;7.890;2023-09-19T10:10:40;8.70;;;2.25;;
15295;SDS011;7749;49.964;7.890;2023-09-19T10:13:10;5.57;;;2.13;;
15295;SDS011;7749;49.964;7.890;2023-09-19T10:15:44;6.55;;;2.30;;
15295;SDS011;7749;49.964;7.890;2023-09-19T10:18:19;3.97;;;1.70;;
15295;SDS011;7749;49.964;7.890;2023-09-19T10:20:52;4.20;;;1.90;;
15295;SDS011;7749;49.964;7.890;2023-09-19T10:23:21;8.30;;;2.10;;
15295;SDS011;7749;49.964;7.890;2023-09-19T10:25:53;6.38;;;2.30;;
15295;SDS011;7749;49.964;7.890;2023-09-19T10:28:34;6.00;;;1.98;;
15295;SDS011;7749;49.964;7.890;2023-09-19T10:31:11;7.35;;;1.80;;
15295;SDS011;7749;49.964;7.890;2023-09-19T10:33:44;5.45;;;2.13;;
15295;SDS011;7749;49.964;7.890;2023-09-19T10:36:16;7.85;;;2.03;;
15295;SDS011;7749;49.964;7.890;2023-09-19T10:38:59;6.10;;;1.95;;
15295;SDS011;7749;49.964;7.890;2023-09-19T10:41:53;4.70;;;1.73;;
15295;SDS011;7749;49.964;7.890;2023-09-19T10:44:39;6.85;;;2.03;;
15295;SDS011;7749;49.964;7.890;2023-09-19T10:47:21;6.53;;;2.20;;
15295;SDS011;7749;49.964;7.890;2023-09-19T10:50:12;3.22;;;1.55;;
15295;SDS011;7749;49.964;7.890;2023-09-19T10:53:01;3.88;;;1.67;;
15295;SDS011;7749;49.964;7.890;2023-09-19T10:55:42;4.78;;;1.73;;
15295;SDS011;7749;49.964;7.890;2023-09-19T10:58:33;7.07;;;2.03;;
15295;SDS011;7749;49.964;7.890;2023-09-19T11:01:09;5.55;;;1.60;;
15295;SDS011;7749;49.964;7.890;2023-09-19T11:03:48;4.00;;;2.03;;
15295;SDS011;7749;49.964;7.890;2023-09-19T11:07:08;4.80;;;1.70;;
15295;SDS011;7749;49.964;7.890;2023-09-19T11:15:08;5.95;;;1.83;;
15295;SDS011;7749;49.964;7.890;2023-09-19T11:17:38;4.55;;;1.80;;
15295;SDS011;7749;49.964;7.890;2023-09-19T11:30:45;5.28;;;2.25;;
15295;SDS011;7749;49.964;7.890;2023-09-19T11:33:22;3.90;;;1.70;;
15295;SDS011;7749;49.964;7.890;2023-09-19T11:43:52;4.22;;;1.85;;
15295;SDS011;7749;49.964;7.890;2023-09-19T11:46:26;3.95;;;1.58;;
15295;SDS011;7749;49.964;7.890;2023-09-19T11:48:55;3.60;;;1.90;;
15295;SDS011;7749;49.964;7.890;2023-09-19T11:51:43;3.38;;;1.77;;
15295;SDS011;7749;49.964;7.890;2023-09-19T11:54:13;4.07;;;1.80;;
15295;SDS011;7749;49.964;7.890;2023-09-19T11:56:45;3.90;;;1.80;;
15295;SDS011;7749;49.964;7.890;2023-09-19T11:59:21;4.28;;;1.70;;
15295;SDS011;7749;49.964;7.890;2023-09-19T12:02:06;4.25;;;1.73;;
15295;SDS011;7749;49.964;7.890;2023-09-19T12:04:41;4.45;;;1.70;;
15295;SDS011;7749;49.964;7.890;2023-09-19T12:07:15;4.85;;;1.88;;
15295;SDS011;7749;49.964;7.890;2023-09-19T12:09:45;3.38;;;1.80;;
15295;SDS011;7749;49.964;7.890;2023-09-19T12:12:24;5.80;;;1.60;;
15295;SDS011;7749;49.964;7.890;2023-09-19T12:14:57;4.95;;;1.80;;
15295;SDS011;7749;49.964;7.890;2023-09-19T12:20:04;4.50;;;1.80;;
15295;SDS011;7749;49.964;7.890;2023-09-19T12:22:41;2.85;;;1.60;;
15295;SDS011;7749;49.964;7.890;2023-09-19T12:25:13;4.55;;;1.88;;
15295;SDS011;7749;49.964;7.890;2023-09-19T12:27:44;3.10;;;1.52;;
15295;SDS011;7749;49.964;7.890;2023-09-19T12:30:16;3.95;;;1.70;;
15295;SDS011;7749;49.964;7.890;2023-09-19T12:32:53;3.92;;;1.98;;
15295;SDS011;7749;49.964;7.890;2023-09-19T12:35:32;2.75;;;1.60;;
15295;SDS011;7749;49.964;7.890;2023-09-19T12:38:08;7.07;;;2.25;;
15295;SDS011;7749;49.964;7.890;2023-09-19T12:40:38;5.18;;;1.50;;
15295;SDS011;7749;49.964;7.890;2023-09-19T12:43:09;4.70;;;1.60;;
15295;SDS011;7749;49.964;7.890;2023-09-19T12:45:42;4.45;;;1.80;;
15295;SDS011;7749;49.964;7.890;2023-09-19T12:53:40;4.57;;;1.63;;
15295;SDS011;7749;49.964;7.890;2023-09-19T12:56:15;3.33;;;1.60;;
15295;SDS011;7749;49.964;7.890;2023-09-19T12:58:55;3.70;;;1.83;;
15295;SDS011;7749;49.964;7.890;2023-09-19T13:01:24;4.03;;;1.88;;
15295;SDS011;7749;49.964;7.890;2023-09-19T13:06:47;2.97;;;1.70;;
15295;SDS011;7749;49.964;7.890;2023-09-19T13:09:20;3.05;;;1.23;;
15295;SDS011;7749;49.964;7.890;2023-09-19T13:11:49;4.47;;;1.50;;
15295;SDS011;7749;49.964;7.890;2023-09-19T13:14:24;6.82;;;4.45;;
15295;SDS011;7749;49.964;7.890;2023-09-19T13:19:45;3.88;;;1.20;;
15295;SDS011;7749;49.964;7.890;2023-09-19T13:25:16;3.60;;;1.40;;
15295;SDS011;7749;49.964;7.890;2023-09-19T13:27:46;2.50;;;1.33;;
15295;SDS011;7749;49.964;7.890;2023-09-19T13:30:18;4.88;;;1.67;;
15295;SDS011;7749;49.964;7.890;2023-09-19T13:32:47;2.83;;;1.65;;
15295;SDS011;7749;49.964;7.890;2023-09-19T13:35:15;3.35;;;1.50;;
15295;SDS011;7749;49.964;7.890;2023-09-19T13:37:43;2.75;;;1.73;;
15295;SDS011;7749;49.964;7.890;2023-09-19T13:40:12;4.20;;;1.55;;
15295;SDS011;7749;49.964;7.890;2023-09-19T13:42:42;2.78;;;1.45;;
15295;SDS011;7749;49.964;7.890;2023-09-19T13:45:10;3.00;;;1.67;;
15295;SDS011;7749;49.964;7.890;2023-09-19T13:47:40;3.08;;;1.58;;
15295;SDS011;7749;49.964;7.890;2023-09-19T13:50:08;3.85;;;1.40;;
15295;SDS011;7749;49.964;7.890;2023-09-19T13:52:36;3.38;;;1.30;;
15295;SDS011;7749;49.964;7.890;2023-09-19T13:55:05;2.65;;;1.48;;
15295;SDS011;7749;49.964;7.890;2023-09-19T13:57:46;3.47;;;1.30;;
15295;SDS011;7749;49.964;7.890;2023-09-19T14:00:19;2.00;;;1.20;;
15295;SDS011;7749;49.964;7.890;2023-09-19T14:02:47;3.25;;;1.60;;
15295;SDS011;7749;49.964;7.890;2023-09-19T14:05:19;3.08;;;1.42;;
15295;SDS011;7749;49.964;7.890;2023-09-19T14:07:48;3.17;;;1.55;;
15295;SDS011;7749;49.964;7.890;2023-09-19T14:10:21;2.25;;;1.40;;
15295;SDS011;7749;49.964;7.890;2023-09-19T14:12:49;2.42;;;1.30;;
15295;SDS011;7749;49.964;7.890;2023-09-19T14:15:23;2.80;;;1.42;;
15295;SDS011;7749;49.964;7.890;2023-09-19T14:17:57;4.13;;;1.70;;
15295;SDS011;7749;49.964;7.890;2023-09-19T14:20:27;3.60;;;1.60;;
15295;SDS011;7749;49.964;7.890;2023-09-19T14:22:55;2.95;;;1.42;;
15295;SDS011;7749;49.964;7.890;2023-09-19T14:25:22;2.20;;;1.50;;
15295;SDS011;7749;49.964;7.890;2023-09-19T14:27:50;2.17;;;1.40;;
15295;SDS011;7749;49.964;7.890;2023-09-19T14:30:18;3.10;;;1.67;;
15295;SDS011;7749;49.964;7.890;2023-09-19T14:32:46;4.15;;;1.48;;
15295;SDS011;7749;49.964;7.890;2023-09-19T14:35:23;3.20;;;1.42;;
15295;SDS011;7749;49.964;7.890;2023-09-19T14:37:50;2.97;;;1.40;;
15295;SDS011;7749;49.964;7.890;2023-09-19T14:40:24;2.83;;;1.35;;
15295;SDS011;7749;49.964;7.890;2023-09-19T14:42:52;3.45;;;1.58;;
15295;SDS011;7749;49.964;7.890;2023-09-19T14:45:26;3.53;;;1.50;;
15295;SDS011;7749;49.964;7.890;2023-09-19T14:47:55;3.15;;;1.40;;
15295;SDS011;7749;49.964;7.890;2023-09-19T14:50:23;2.13;;;1.00;;
15295;SDS011;7749;49.964;7.890;2023-09-19T14:52:51;3.63;;;1.35;;
15295;SDS011;7749;49.964;7.890;2023-09-19T14:55:21;3.15;;;1.20;;
15295;SDS011;7749;49.964;7.890;2023-09-19T14:57:49;2.95;;;1.48;;
15295;SDS011;7749;49.964;7.890;2023-09-19T15:00:18;1.85;;;1.13;;
15295;SDS011;7749;49.964;7.890;2023-09-19T15:02:48;2.30;;;1.30;;
15295;SDS011;7749;49.964;7.890;2023-09-19T15:05:23;2.25;;;1.13;;
15295;SDS011;7749;49.964;7.890;2023-09-19T15:07:51;2.85;;;1.35;;
15295;SDS011;7749;49.964;7.890;2023-09-19T15:10:19;1.55;;;1.17;;
15295;SDS011;7749;49.964;7.890;2023-09-19T15:12:46;3.15;;;1.15;;
15295;SDS011;7749;49.964;7.890;2023-09-19T15:15:14;2.65;;;1.55;;
15295;SDS011;7749;49.964;7.890;2023-09-19T15:17:41;1.80;;;1.20;;
15295;SDS011;7749;49.964;7.890;2023-09-19T15:20:09;2.67;;;1.30;;
15295;SDS011;7749;49.964;7.890;2023-09-19T15:22:41;2.42;;;1.42;;
15295;SDS011;7749;49.964;7.890;2023-09-19T15:25:21;1.80;;;1.35;;
15295;SDS011;7749;49.964;7.890;2023-09-19T15:27:50;2.28;;;1.40;;
15295;SDS011;7749;49.964;7.890;2023-09-19T15:30:17;3.03;;;1.17;;
15295;SDS011;7749;49.964;7.890;2023-09-19T15:32:45;1.52;;;1.30;;
15295;SDS011;7749;49.964;7.890;2023-09-19T15:35:26;2.50;;;1.20;;
15295;SDS011;7749;49.964;7.890;2023-09-19T15:37:56;2.85;;;1.20;;
15295;SDS011;7749;49.964;7.890;2023-09-19T15:40:26;1.98;;;1.08;;
15295;SDS011;7749;49.964;7.890;2023-09-19T15:42:54;3.22;;;1.17;;
15295;SDS011;7749;49.964;7.890;2023-09-19T15:45:23;2.33;;;1.50;;
15295;SDS011;7749;49.964;7.890;2023-09-19T15:47:52;2.33;;;1.30;;
15295;SDS011;7749;49.964;7.890;2023-09-19T15:50:21;2.42;;;1.13;;
15295;SDS011;7749;49.964;7.890;2023-09-19T15:52:52;2.30;;;1.20;;
15295;SDS011;7749;49.964;7.890;2023-09-19T15:55:25;3.53;;;1.10;;
15295;SDS011;7749;49.964;7.890;2023-09-19T15:57:53;1.23;;;1.05;;
15295;SDS011;7749;49.964;7.890;2023-09-19T16:00:20;4.13;;;1.23;;
15295;SDS011;7749;49.964;7.890;2023-09-19T16:02:49;1.55;;;0.90;;
15295;SDS011;7749;49.964;7.890;2023-09-19T16:05:17;2.53;;;1.20;;
15295;SDS011;7749;49.964;7.890;2023-09-19T16:07:45;2.45;;;1.30;;
15295;SDS011;7749;49.964;7.890;2023-09-19T16:10:18;2.80;;;1.15;;
15295;SDS011;7749;49.964;7.890;2023-09-19T16:12:46;2.92;;;1.50;;
15295;SDS011;7749;49.964;7.890;2023-09-19T16:15:13;2.60;;;1.20;;
15295;SDS011;7749;49.964;7.890;2023-09-19T16:17:42;2.78;;;1.35;;
15295;SDS011;7749;49.964;7.890;2023-09-19T16:20:25;1.83;;;1.15;;